createdAt,value
2019-02-23T00:00:37.464Z,94.10
2019-02-23T00:03:06.269Z,93.90
2019-02-23T00:05:35.130Z,93.70
2019-02-23T00:08:04.019Z,93.80
2019-02-23T00:10:32.873Z,94.10
2019-02-23T00:13:01.731Z,93.90
2019-02-23T00:15:30.637Z,94.00
2019-02-23T00:17:59.525Z,94.30
2019-02-23T00:20:28.377Z,94.30
2019-02-23T00:22:57.259Z,93.90
2019-02-23T00:25:36.783Z,94.40
2019-02-23T00:28:05.759Z,94.30
2019-02-23T00:30:34.565Z,93.70
2019-02-23T00:33:03.381Z,93.40
2019-02-23T00:35:32.225Z,93.20
2019-02-23T00:38:01.091Z,93.50
2019-02-23T00:40:29.890Z,93.20
2019-02-23T00:42:58.758Z,93.00
2019-02-23T00:45:27.578Z,93.60
2019-02-23T00:47:56.366Z,93.80
2019-02-23T00:50:25.237Z,93.60
2019-02-23T00:52:54.045Z,93.20
2019-02-23T00:55:23.041Z,93.10
2019-02-23T00:57:51.847Z,93.50
2019-02-23T01:00:20.877Z,93.70
2019-02-23T01:02:49.801Z,93.80
2019-02-23T01:05:18.603Z,93.20
2019-02-23T01:07:47.409Z,93.40
2019-02-23T01:10:16.231Z,93.50
2019-02-23T01:12:45.141Z,93.30
2019-02-23T01:15:14.201Z,93.40
2019-02-23T01:17:43.132Z,93.70
2019-02-23T01:20:12.226Z,93.40
2019-02-23T01:22:41.179Z,94.00
2019-02-23T01:25:10.195Z,94.10
2019-02-23T01:27:39.102Z,94.10
2019-02-23T01:30:10.614Z,94.40
2019-02-23T01:32:39.434Z,94.30
2019-02-23T01:35:08.305Z,94.50
2019-02-23T01:37:37.141Z,94.10
2019-02-23T01:40:08.137Z,94.20
2019-02-23T01:42:36.979Z,94.20
2019-02-23T01:45:06.277Z,94.20
2019-02-23T01:47:35.213Z,94.10
2019-02-23T01:50:04.243Z,94.50
2019-02-23T01:52:33.017Z,94.50
2019-02-23T01:55:01.894Z,95.00
2019-02-23T01:57:30.667Z,95.10
2019-02-23T01:59:59.548Z,95.10
2019-02-23T02:02:28.343Z,95.50
2019-02-23T02:04:57.265Z,96.00
2019-02-23T02:07:26.273Z,96.30
2019-02-23T02:09:55.213Z,96.60
2019-02-23T02:12:24.418Z,96.60
2019-02-23T02:14:53.368Z,96.50
2019-02-23T02:17:22.334Z,96.70
2019-02-23T02:19:51.254Z,96.70
2019-02-23T02:22:20.082Z,97.20
2019-02-23T02:24:48.870Z,97.40
2019-02-23T02:27:17.863Z,97.80
2019-02-23T02:29:46.821Z,98.10
2019-02-23T02:32:15.722Z,98.10
2019-02-23T02:34:44.577Z,98.00
2019-02-23T02:37:13.349Z,98.30
2019-02-23T02:39:42.091Z,98.40
2019-02-23T02:42:10.961Z,98.60
2019-02-23T02:44:39.750Z,98.80
2019-02-23T02:47:08.600Z,99.00
2019-02-23T02:49:37.556Z,99.00
2019-02-23T02:52:06.462Z,99.40
2019-02-23T02:54:35.316Z,99.30
2019-02-23T02:57:04.290Z,99.60
2019-02-23T02:59:33.289Z,99.70
2019-02-23T03:02:02.158Z,99.80
2019-02-23T03:04:31.192Z,99.90
2019-02-23T03:07:00.039Z,99.90
2019-02-23T03:09:28.953Z,99.90
2019-02-23T03:11:57.812Z,99.90
2019-02-23T03:14:26.637Z,99.90
2019-02-23T03:16:55.520Z,99.90
2019-02-23T03:19:24.547Z,99.90
2019-02-23T03:21:53.414Z,99.90
2019-02-23T03:24:22.287Z,99.90
2019-02-23T03:26:51.210Z,99.90
2019-02-23T03:29:20.081Z,99.90
2019-02-23T03:31:51.030Z,99.90
2019-02-23T03:34:19.960Z,99.90
2019-02-23T03:36:48.882Z,99.90
2019-02-23T03:39:17.731Z,99.90
2019-02-23T03:41:46.863Z,99.90
2019-02-23T03:44:15.716Z,99.90
2019-02-23T03:46:44.784Z,99.90
2019-02-23T03:49:13.730Z,99.90
2019-02-23T03:51:42.962Z,99.90
2019-02-23T03:54:12.044Z,99.90
2019-02-23T03:56:41.002Z,99.90
2019-02-23T03:59:09.884Z,99.90
2019-02-23T04:01:38.808Z,99.90
2019-02-23T04:04:07.751Z,99.90
2019-02-23T04:06:36.607Z,99.90
2019-02-23T04:09:06.214Z,99.90
2019-02-23T04:11:35.174Z,99.90
2019-02-23T04:14:03.972Z,99.90
2019-02-23T04:16:32.940Z,99.90
2019-02-23T04:19:01.956Z,99.90
2019-02-23T04:21:30.742Z,99.90
2019-02-23T04:23:59.610Z,99.90
2019-02-23T04:26:28.538Z,99.90
2019-02-23T04:28:57.323Z,99.90
2019-02-23T04:31:26.186Z,99.90
2019-02-23T04:33:55.174Z,99.90
2019-02-23T04:36:23.992Z,99.90
2019-02-23T04:38:52.800Z,99.60
2019-02-23T04:41:21.641Z,99.50
2019-02-23T04:43:50.836Z,99.10
2019-02-23T04:46:19.936Z,99.20
2019-02-23T04:48:48.810Z,99.40
2019-02-23T04:51:17.706Z,99.60
2019-02-23T04:53:46.567Z,99.50
2019-02-23T04:56:16.906Z,99.40
2019-02-23T04:58:45.783Z,99.40
2019-02-23T05:01:14.675Z,99.20
2019-02-23T05:03:43.806Z,99.60
2019-02-23T05:06:12.977Z,99.80
2019-02-23T05:08:41.879Z,99.90
2019-02-23T05:11:10.772Z,99.90
2019-02-23T05:13:39.742Z,99.90
2019-02-23T05:16:08.710Z,99.90
2019-02-23T05:18:37.580Z,99.90
2019-02-23T05:21:06.439Z,99.90
2019-02-23T05:23:35.236Z,99.90
2019-02-23T05:26:04.073Z,99.90
2019-02-23T05:28:32.867Z,99.90
2019-02-23T05:31:01.725Z,99.90
2019-02-23T05:33:30.512Z,99.90
2019-02-23T05:35:59.410Z,99.90
2019-02-23T05:38:28.222Z,99.90
2019-02-23T05:40:56.980Z,99.90
2019-02-23T05:43:25.942Z,99.90
2019-02-23T05:45:54.898Z,99.90
2019-02-23T05:48:23.757Z,99.90
2019-02-23T05:50:52.611Z,99.90
2019-02-23T05:53:21.544Z,99.90
2019-02-23T05:55:50.400Z,99.90
2019-02-23T05:58:20.916Z,99.90
2019-02-23T06:00:49.825Z,99.90
2019-02-23T06:03:18.916Z,99.90
2019-02-23T06:05:47.803Z,99.90
2019-02-23T06:08:16.737Z,99.90
2019-02-23T06:10:45.716Z,99.90
2019-02-23T06:13:14.671Z,99.90
2019-02-23T06:15:43.523Z,99.90
2019-02-23T06:18:12.531Z,99.90
2019-02-23T06:20:41.519Z,99.90
2019-02-23T06:23:10.557Z,99.90
2019-02-23T06:25:39.473Z,99.90
2019-02-23T06:28:08.487Z,99.90
2019-02-23T06:30:37.483Z,99.90
2019-02-23T06:33:06.262Z,99.90
2019-02-23T06:35:35.136Z,99.90
2019-02-23T06:38:04.135Z,99.90
2019-02-23T06:40:32.950Z,99.90
2019-02-23T06:43:01.918Z,99.90
2019-02-23T06:45:30.806Z,99.90
2019-02-23T06:47:59.775Z,99.90
2019-02-23T06:50:28.846Z,99.90
2019-02-23T06:52:57.778Z,99.90
2019-02-23T06:55:26.769Z,99.90
2019-02-23T06:57:55.722Z,99.90
2019-02-23T07:00:24.539Z,99.90
2019-02-23T07:02:53.322Z,99.90
2019-02-23T07:05:22.290Z,99.90
2019-02-23T07:07:51.286Z,99.90
2019-02-23T07:10:20.202Z,99.90
2019-02-23T07:12:49.036Z,99.90
2019-02-23T07:15:19.726Z,99.90
2019-02-23T07:17:48.766Z,99.90
2019-02-23T07:20:17.608Z,99.90
2019-02-23T07:22:46.518Z,99.90
2019-02-23T07:25:15.540Z,99.90
2019-02-23T07:27:44.357Z,99.90
2019-02-23T07:30:13.219Z,99.90
2019-02-23T07:32:42.214Z,99.90
2019-02-23T07:35:11.393Z,99.90
2019-02-23T07:37:40.598Z,99.90
2019-02-23T07:40:09.809Z,99.90
2019-02-23T07:42:38.787Z,99.90
2019-02-23T07:45:08.091Z,99.90
2019-02-23T07:47:36.929Z,99.90
2019-02-23T07:50:07.572Z,99.90
2019-02-23T07:52:36.910Z,99.90
2019-02-23T07:55:06.110Z,99.90
2019-02-23T07:57:35.078Z,99.90
2019-02-23T08:00:04.117Z,99.90
2019-02-23T08:02:33.034Z,99.60
2019-02-23T08:05:01.875Z,99.40
2019-02-23T08:07:30.858Z,98.40
2019-02-23T08:09:59.730Z,97.60
2019-02-23T08:12:28.598Z,97.00
2019-02-23T08:14:57.843Z,97.00
2019-02-23T08:17:26.886Z,96.20
2019-02-23T08:19:56.343Z,95.80
2019-02-23T08:22:25.347Z,95.50
2019-02-23T08:24:54.366Z,94.50
2019-02-23T08:27:23.466Z,93.50
2019-02-23T08:29:52.460Z,92.50
2019-02-23T08:32:23.442Z,92.40
2019-02-23T08:34:52.397Z,91.70
2019-02-23T08:37:21.215Z,91.50
2019-02-23T08:39:50.055Z,90.90
2019-02-23T08:42:18.916Z,90.00
2019-02-23T08:44:47.771Z,89.70
2019-02-23T08:47:16.631Z,85.50
2019-02-23T08:49:45.651Z,83.60
2019-02-23T08:52:15.822Z,83.00
2019-02-23T08:54:44.593Z,81.30
2019-02-23T08:57:13.471Z,79.30
2019-02-23T08:59:42.513Z,75.90
2019-02-23T09:02:11.644Z,71.20
2019-02-23T09:04:40.576Z,71.80
2019-02-23T09:07:09.544Z,68.20
2019-02-23T09:09:38.494Z,65.80
2019-02-23T09:12:07.440Z,63.90
2019-02-23T09:14:36.391Z,63.60
2019-02-23T09:17:05.400Z,60.70
2019-02-23T09:19:34.299Z,59.60
2019-02-23T09:22:03.142Z,59.80
2019-02-23T09:24:32.078Z,57.40
2019-02-23T09:27:00.935Z,55.70
2019-02-23T09:29:29.900Z,56.40
2019-02-23T09:31:58.821Z,56.10
2019-02-23T09:34:27.726Z,53.40
2019-02-23T09:36:56.618Z,53.50
2019-02-23T09:39:25.411Z,52.60
2019-02-23T09:41:54.173Z,52.50
2019-02-23T09:44:23.070Z,53.10
2019-02-23T09:46:52.139Z,52.50
2019-02-23T09:49:21.035Z,50.60
2019-02-23T09:51:50.095Z,50.10
2019-02-23T09:54:18.931Z,49.10
2019-02-23T09:56:47.711Z,48.10
2019-02-23T09:59:16.495Z,45.60
2019-02-23T10:01:45.277Z,44.60
2019-02-23T10:04:14.129Z,44.00
2019-02-23T10:06:43.097Z,42.20
2019-02-23T10:09:12.079Z,42.50
2019-02-23T10:11:40.971Z,41.90
2019-02-23T10:14:10.084Z,40.60
2019-02-23T10:16:39.329Z,40.30
2019-02-23T10:19:08.379Z,40.60
2019-02-23T10:21:37.256Z,40.50
2019-02-23T10:24:06.443Z,40.50
2019-02-23T10:26:35.389Z,39.20
2019-02-23T10:29:04.291Z,36.60
2019-02-23T10:31:33.188Z,35.80
2019-02-23T10:34:02.025Z,35.10
2019-02-23T10:36:30.943Z,34.80
2019-02-23T10:38:59.873Z,35.80
2019-02-23T10:41:28.957Z,35.00
2019-02-23T10:43:57.963Z,34.20
2019-02-23T10:46:26.929Z,34.00
2019-02-23T10:48:55.901Z,33.80
2019-02-23T10:51:24.739Z,32.60
2019-02-23T10:53:53.806Z,32.10
2019-02-23T10:56:22.605Z,32.20
2019-02-23T10:58:51.538Z,31.50
2019-02-23T11:01:20.553Z,31.70
2019-02-23T11:03:49.403Z,30.80
2019-02-23T11:06:18.287Z,30.30
2019-02-23T11:08:47.280Z,30.60
2019-02-23T11:11:16.240Z,30.20
2019-02-23T11:13:45.145Z,30.00
2019-02-23T11:16:14.268Z,30.10
2019-02-23T11:18:43.071Z,30.60
2019-02-23T11:21:11.999Z,30.70
2019-02-23T11:23:44.159Z,30.40
2019-02-23T11:26:11.627Z,30.40
2019-02-23T11:28:40.688Z,31.20
2019-02-23T11:31:09.852Z,30.90
2019-02-23T11:33:38.681Z,30.40
2019-02-23T11:36:07.691Z,30.70
2019-02-23T11:38:36.702Z,30.60
2019-02-23T11:41:05.755Z,31.70
2019-02-23T11:43:34.573Z,31.90
2019-02-23T11:46:03.469Z,31.10
2019-02-23T11:48:34.851Z,31.00
2019-02-23T11:51:04.267Z,31.30
2019-02-23T11:53:33.075Z,31.60
2019-02-23T11:56:01.865Z,30.80
2019-02-23T11:58:30.629Z,30.60
2019-02-23T12:00:59.575Z,30.20
2019-02-23T12:06:32.187Z,32.00
2019-02-23T12:09:01.955Z,32.30
2019-02-23T12:11:30.881Z,32.90
2019-02-23T12:13:59.709Z,32.90
2019-02-23T12:16:29.281Z,32.90
2019-02-23T12:18:58.109Z,32.50
2019-02-23T12:21:26.894Z,32.20
2019-02-23T12:24:05.483Z,31.50
2019-02-23T12:26:26.163Z,32.30
2019-02-23T12:28:54.967Z,32.60
2019-02-23T12:31:23.901Z,32.50
2019-02-23T12:33:52.729Z,33.10
2019-02-23T12:36:21.617Z,32.70
2019-02-23T12:38:50.611Z,32.80
2019-02-23T12:41:19.437Z,32.20
2019-02-23T12:43:48.462Z,32.20
2019-02-23T12:46:17.399Z,31.50
2019-02-23T12:48:46.313Z,31.00
2019-02-23T12:51:15.313Z,30.70
2019-02-23T12:53:44.336Z,31.10
2019-02-23T12:56:13.197Z,30.20
2019-02-23T12:58:42.055Z,30.40
2019-02-23T13:01:10.872Z,30.20
2019-02-23T13:03:39.673Z,29.60
2019-02-23T13:06:08.514Z,29.50
2019-02-23T13:09:24.808Z,29.50
2019-02-23T13:12:06.909Z,29.20
2019-02-23T13:15:09.031Z,28.80
2019-02-23T13:18:01.242Z,28.70
2019-02-23T13:21:17.300Z,28.60
2019-02-23T13:24:44.567Z,28.40
2019-02-23T13:27:23.521Z,28.30
2019-02-23T13:30:39.368Z,28.50
2019-02-23T13:33:47.068Z,28.10
2019-02-23T13:36:49.416Z,27.60
2019-02-23T13:39:42.165Z,27.80
2019-02-23T13:42:50.378Z,27.90
2019-02-23T13:46:05.607Z,28.10
2019-02-23T13:49:31.587Z,28.40
2019-02-23T13:52:24.773Z,27.30
2019-02-23T13:55:39.886Z,27.40
2019-02-23T13:58:54.221Z,28.00
2019-02-23T14:01:50.495Z,28.40
2019-02-23T14:05:12.503Z,28.80
2019-02-23T14:08:12.155Z,29.00
2019-02-23T14:11:11.407Z,29.20
2019-02-23T14:14:17.182Z,29.20
2019-02-23T14:17:03.747Z,29.40
2019-02-23T14:19:49.260Z,29.20
2019-02-23T14:22:59.973Z,29.50
2019-02-23T14:26:13.427Z,30.00
2019-02-23T14:28:53.144Z,29.40
2019-02-23T14:31:31.954Z,29.50
2019-02-23T14:34:17.772Z,29.50
2019-02-23T14:37:11.849Z,29.10
2019-02-23T14:40:01.957Z,29.20
2019-02-23T14:43:00.621Z,29.70
2019-02-23T14:45:49.433Z,29.50
2019-02-23T14:48:53.986Z,28.70
2019-02-23T14:51:46.426Z,28.10
2019-02-23T14:54:23.522Z,28.30
2019-02-23T14:57:27.277Z,28.30
2019-02-23T15:00:31.006Z,28.50
2019-02-23T15:03:41.271Z,28.30
2019-02-23T15:06:54.563Z,28.20
2019-02-23T15:09:37.010Z,28.10
2019-02-23T15:12:29.545Z,28.00
2019-02-23T15:15:22.946Z,28.20
2019-02-23T15:18:25.239Z,28.20
2019-02-23T15:21:04.850Z,28.10
2019-02-23T15:23:54.329Z,28.80
2019-02-23T15:27:00.774Z,29.60
2019-02-23T15:30:08.102Z,30.20
2019-02-23T15:33:11.032Z,30.80
2019-02-23T15:36:00.342Z,31.40
2019-02-23T15:39:34.546Z,31.50
2019-02-23T15:43:00.080Z,31.50
2019-02-23T15:46:13.203Z,31.70
2019-02-23T15:49:06.425Z,31.70
2019-02-23T15:51:35.294Z,31.50
2019-02-23T15:54:04.510Z,31.40
2019-02-23T15:56:33.410Z,31.40
2019-02-23T15:59:02.304Z,31.50
2019-02-23T16:01:31.313Z,31.20
2019-02-23T16:04:00.136Z,30.80
2019-02-23T16:06:31.542Z,30.50
2019-02-23T16:08:59.547Z,30.40
2019-02-23T16:11:28.431Z,29.80
2019-02-23T16:13:57.426Z,29.80
2019-02-23T16:16:26.340Z,30.00
2019-02-23T16:18:55.215Z,30.30
2019-02-23T16:21:24.036Z,32.00
2019-02-23T16:23:52.889Z,34.30
2019-02-23T16:26:21.750Z,35.90
2019-02-23T16:28:50.576Z,37.00
2019-02-23T16:31:19.387Z,38.00
2019-02-23T16:33:48.342Z,38.80
2019-02-23T16:36:17.240Z,39.30
2019-02-23T16:38:46.026Z,39.60
2019-02-23T16:41:14.830Z,39.80
2019-02-23T16:43:43.636Z,40.20
2019-02-23T16:46:12.518Z,40.60
2019-02-23T16:48:41.340Z,40.90
2019-02-23T16:51:10.310Z,41.20
2019-02-23T16:53:39.086Z,41.70
2019-02-23T16:56:07.980Z,42.10
2019-02-23T16:58:36.876Z,42.30
2019-02-23T17:01:05.690Z,42.60
2019-02-23T17:03:34.586Z,42.50
2019-02-23T17:06:03.446Z,42.60
2019-02-23T17:08:32.279Z,43.10
2019-02-23T17:11:01.168Z,43.00
2019-02-23T17:13:29.990Z,43.40
2019-02-23T17:15:58.837Z,43.70
2019-02-23T17:18:27.620Z,44.50
2019-02-23T17:20:56.476Z,45.00
2019-02-23T17:23:25.253Z,44.80
2019-02-23T17:26:03.742Z,45.60
2019-02-23T17:28:24.716Z,46.30
2019-02-23T17:30:53.610Z,46.40
2019-02-23T17:33:22.502Z,46.50
2019-02-23T17:35:51.336Z,46.80
2019-02-23T17:38:20.215Z,47.10
2019-02-23T17:40:49.079Z,47.00
2019-02-23T17:43:17.962Z,47.50
2019-02-23T17:45:46.789Z,48.40
2019-02-23T17:48:15.640Z,49.20
2019-02-23T17:50:44.530Z,50.30
2019-02-23T17:53:13.418Z,49.30
2019-02-23T17:55:42.278Z,49.80
2019-02-23T17:58:11.078Z,49.90
2019-02-23T18:00:39.910Z,51.10
2019-02-23T18:03:08.728Z,50.70
2019-02-23T18:05:37.619Z,51.80
2019-02-23T18:08:06.467Z,51.80
2019-02-23T18:10:35.407Z,52.60
2019-02-23T18:13:04.219Z,52.60
2019-02-23T18:15:33.023Z,52.70
2019-02-23T18:18:01.832Z,52.30
2019-02-23T18:20:30.904Z,52.90
2019-02-23T18:22:59.764Z,53.10
2019-02-23T18:25:28.635Z,53.30
2019-02-23T18:27:57.439Z,53.50
2019-02-23T18:30:26.280Z,54.90
2019-02-23T18:32:55.085Z,55.70
2019-02-23T18:35:23.889Z,56.70
2019-02-23T18:37:52.679Z,56.50
2019-02-23T18:40:21.467Z,56.80
2019-02-23T18:42:50.266Z,57.60
2019-02-23T18:45:19.209Z,57.90
2019-02-23T18:47:48.137Z,58.40
2019-02-23T18:50:17.054Z,59.80
2019-02-23T18:52:45.868Z,59.70
2019-02-23T18:55:14.891Z,60.10
2019-02-23T18:57:43.692Z,59.80
2019-02-23T19:00:12.969Z,59.90
2019-02-23T19:02:41.907Z,60.00
2019-02-23T19:05:11.759Z,60.30
2019-02-23T19:07:40.689Z,61.30
2019-02-23T19:10:10.933Z,60.70
2019-02-23T19:12:42.839Z,60.30
2019-02-23T19:15:12.048Z,60.80
2019-02-23T19:17:42.345Z,61.10
2019-02-23T19:20:12.111Z,60.70
2019-02-23T19:22:41.034Z,60.60
2019-02-23T19:25:14.874Z,62.10
2019-02-23T19:27:44.001Z,62.20
2019-02-23T19:30:12.957Z,61.70
2019-02-23T19:32:46.917Z,60.60
2019-02-23T19:35:15.793Z,61.60
2019-02-23T19:37:44.965Z,63.80
2019-02-23T19:40:17.315Z,64.50
2019-02-23T19:42:46.894Z,64.30
2019-02-23T19:45:16.215Z,64.30
2019-02-23T19:47:49.919Z,64.40
2019-02-23T19:50:25.037Z,65.40
2019-02-23T19:52:54.319Z,65.40
2019-02-23T19:55:23.703Z,65.80
2019-02-23T19:57:52.791Z,66.50
2019-02-23T20:00:21.734Z,67.30
2019-02-23T20:02:50.655Z,68.80
2019-02-23T20:05:19.895Z,67.90
2019-02-23T20:07:52.654Z,68.40
2019-02-23T20:10:25.951Z,68.50
2019-02-23T20:12:55.885Z,69.00
2019-02-23T20:15:24.818Z,69.70
2019-02-23T20:17:53.706Z,70.70
2019-02-23T20:20:22.571Z,71.90
2019-02-23T20:22:51.783Z,73.70
2019-02-23T20:25:20.723Z,74.70
2019-02-23T20:27:49.651Z,73.60
2019-02-23T20:30:18.943Z,74.60
2019-02-23T20:32:49.290Z,75.10
2019-02-23T20:35:18.260Z,73.80
2019-02-23T20:37:47.179Z,77.40
2019-02-23T20:40:16.119Z,77.60
2019-02-23T20:42:44.969Z,77.60
2019-02-23T20:45:14.517Z,79.60
2019-02-23T20:47:43.454Z,80.60
2019-02-23T20:50:12.308Z,80.50
2019-02-23T20:52:41.134Z,80.30
2019-02-23T20:55:10.965Z,80.00
2019-02-23T20:57:39.790Z,78.50
2019-02-23T21:00:13.934Z,79.40
2019-02-23T21:02:40.047Z,78.80
2019-02-23T21:05:09.425Z,77.90
2019-02-23T21:07:38.378Z,74.30
2019-02-23T21:10:07.560Z,72.20
2019-02-23T21:12:36.707Z,72.30
2019-02-23T21:15:07.963Z,74.50
2019-02-23T21:17:45.205Z,74.00
2019-02-23T21:20:14.214Z,74.80
2019-02-23T21:22:46.998Z,75.10
2019-02-23T21:25:16.583Z,76.90
2019-02-23T21:27:45.769Z,76.90
2019-02-23T21:30:14.594Z,78.40
2019-02-23T21:32:43.665Z,79.80
2019-02-23T21:35:12.459Z,80.00
2019-02-23T21:37:41.576Z,80.00
2019-02-23T21:40:12.090Z,79.80
2019-02-23T21:42:41.912Z,79.30
2019-02-23T21:45:10.849Z,79.40
2019-02-23T21:47:39.750Z,79.40
2019-02-23T21:50:09.424Z,79.80
2019-02-23T21:52:38.274Z,81.40
2019-02-23T21:55:07.552Z,81.50
2019-02-23T21:57:36.614Z,83.00
2019-02-23T22:00:05.751Z,83.70
2019-02-23T22:02:34.545Z,84.00
2019-02-23T22:05:11.651Z,84.20
2019-02-23T22:07:33.985Z,85.00
2019-02-23T22:10:02.978Z,85.80
2019-02-23T22:12:31.802Z,85.90
2019-02-23T22:15:00.761Z,86.60
2019-02-23T22:17:29.629Z,88.80
2019-02-23T22:19:58.611Z,87.90
2019-02-23T22:22:27.488Z,88.80
2019-02-23T22:24:56.362Z,89.50
2019-02-23T22:27:31.112Z,90.00
2019-02-23T22:29:55.884Z,89.50
2019-02-23T22:32:24.739Z,90.20
2019-02-23T22:34:53.565Z,90.60
2019-02-23T22:37:22.475Z,90.70
2019-02-23T22:39:51.371Z,90.70
2019-02-23T22:42:20.156Z,90.80
2019-02-23T22:44:49.020Z,90.80
2019-02-23T22:47:17.878Z,90.40
2019-02-23T22:49:46.707Z,90.50
2019-02-23T22:52:15.653Z,90.20
2019-02-23T22:54:44.449Z,90.40
2019-02-23T22:57:13.608Z,90.60
2019-02-23T22:59:42.626Z,90.90
2019-02-23T23:02:11.805Z,90.90
2019-02-23T23:04:40.669Z,91.20
2019-02-23T23:07:09.547Z,91.50
2019-02-23T23:09:38.346Z,92.00
2019-02-23T23:12:08.590Z,92.40
2019-02-23T23:14:37.455Z,92.50
2019-02-23T23:17:06.583Z,92.50
2019-02-23T23:19:35.457Z,92.60
2019-02-23T23:22:04.257Z,92.70
2019-02-23T23:24:35.770Z,92.70
2019-02-23T23:27:04.721Z,92.70
2019-02-23T23:29:33.778Z,92.80
2019-02-23T23:32:02.612Z,93.20
2019-02-23T23:34:31.608Z,93.00
2019-02-23T23:37:00.655Z,93.40
2019-02-23T23:39:29.521Z,93.30
2019-02-23T23:41:58.337Z,93.70
2019-02-23T23:44:27.162Z,93.50
2019-02-23T23:46:56.025Z,93.50
2019-02-23T23:49:25.155Z,93.30
2019-02-23T23:51:54.227Z,93.50
2019-02-23T23:54:23.215Z,93.30
2019-02-23T23:56:52.061Z,92.70
2019-02-23T23:59:20.945Z,92.00
